Terminal Aerodrome Forecast
Issued by NWS Brownsville, TX

Current Version | Previous Version | Text Only | Print | Product List | Glossary Off
Versions: 1 2 3 4 5 6 7 8 9 10 11 12

000
FTUS44 KBRO 291120
TAFBRO
TAF
KBRO 291120Z 2912/3012 VRB03KT P6SM FEW025 SCT250
      TEMPO 2912/2913 5SM BR
     FM291500 15005KT P6SM SCT035
     FM291800 10012KT P6SM SCT040 BKN250
      TEMPO 2919/2922 VRB25G30KT 5SM TSRA BKN030CB
     FM300100 15006KT P6SM FEW025 BKN250=

USA.gov is the U.S. government's official web portal to all federal, state and local government web resources and services.